sensor_id;sensor_type;location;lat;lon;timestamp;temperature;humidity
17215;DHT22;8723;51.502;6.918;2023-07-13T00:00:42;18.10;1.00
17215;DHT22;8723;51.502;6.918;2023-07-13T00:03:09;18.20;1.00
17215;DHT22;8723;51.502;6.918;2023-07-13T00:05:40;18.30;1.00
17215;DHT22;8723;51.502;6.918;2023-07-13T00:08:08;18.30;1.00
17215;DHT22;8723;51.502;6.918;2023-07-13T00:10:39;18.30;1.00
17215;DHT22;8723;51.502;6.918;2023-07-13T00:13:07;18.40;1.00
17215;DHT22;8723;51.502;6.918;2023-07-13T00:15:34;18.40;1.00
17215;DHT22;8723;51.502;6.918;2023-07-13T00:18:01;18.50;1.00
17215;DHT22;8723;51.502;6.918;2023-07-13T00:20:28;18.40;1.00
17215;DHT22;8723;51.502;6.918;2023-07-13T00:22:56;18.40;1.00
17215;DHT22;8723;51.502;6.918;2023-07-13T00:25:25;18.50;1.00
17215;DHT22;8723;51.502;6.918;2023-07-13T00:27:54;18.40;1.00
17215;DHT22;8723;51.502;6.918;2023-07-13T00:30:22;18.40;1.00
17215;DHT22;8723;51.502;6.918;2023-07-13T00:32:49;18.40;1.00
17215;DHT22;8723;51.502;6.918;2023-07-13T00:35:16;18.40;1.00
17215;DHT22;8723;51.502;6.918;2023-07-13T00:37:43;18.40;1.00
17215;DHT22;8723;51.502;6.918;2023-07-13T00:40:13;18.40;1.00
17215;DHT22;8723;51.502;6.918;2023-07-13T00:42:41;18.40;1.00
17215;DHT22;8723;51.502;6.918;2023-07-13T00:48:18;18.30;1.00
17215;DHT22;8723;51.502;6.918;2023-07-13T00:50:49;18.10;1.00
17215;DHT22;8723;51.502;6.918;2023-07-13T00:53:17;18.20;1.00
17215;DHT22;8723;51.502;6.918;2023-07-13T00:55:45;18.10;1.00
17215;DHT22;8723;51.502;6.918;2023-07-13T00:58:12;18.00;1.00
17215;DHT22;8723;51.502;6.918;2023-07-13T01:00:40;18.00;1.00
17215;DHT22;8723;51.502;6.918;2023-07-13T01:03:07;18.10;1.00
17215;DHT22;8723;51.502;6.918;2023-07-13T01:05:36;18.10;1.00
17215;DHT22;8723;51.502;6.918;2023-07-13T01:08:04;18.00;1.00
17215;DHT22;8723;51.502;6.918;2023-07-13T01:10:37;17.90;1.00
17215;DHT22;8723;51.502;6.918;2023-07-13T01:13:05;17.90;1.00
17215;DHT22;8723;51.502;6.918;2023-07-13T01:15:36;17.90;1.00
17215;DHT22;8723;51.502;6.918;2023-07-13T01:18:03;18.00;1.00
17215;DHT22;8723;51.502;6.918;2023-07-13T01:20:31;18.00;1.00
17215;DHT22;8723;51.502;6.918;2023-07-13T01:23:05;18.00;1.00
17215;DHT22;8723;51.502;6.918;2023-07-13T01:25:32;18.00;1.00
17215;DHT22;8723;51.502;6.918;2023-07-13T01:28:00;18.00;1.00
17215;DHT22;8723;51.502;6.918;2023-07-13T01:30:27;17.90;1.00
17215;DHT22;8723;51.502;6.918;2023-07-13T01:32:54;17.90;1.00
17215;DHT22;8723;51.502;6.918;2023-07-13T01:35:21;17.90;1.00
17215;DHT22;8723;51.502;6.918;2023-07-13T01:37:48;17.90;1.00
17215;DHT22;8723;51.502;6.918;2023-07-13T01:40:16;17.80;1.00
17215;DHT22;8723;51.502;6.918;2023-07-13T01:42:45;17.70;1.00
17215;DHT22;8723;51.502;6.918;2023-07-13T01:45:13;17.70;1.00
17215;DHT22;8723;51.502;6.918;2023-07-13T01:47:42;17.70;1.00
17215;DHT22;8723;51.502;6.918;2023-07-13T01:50:12;17.70;1.00
17215;DHT22;8723;51.502;6.918;2023-07-13T01:52:41;17.70;1.00
17215;DHT22;8723;51.502;6.918;2023-07-13T01:55:11;17.70;1.00
17215;DHT22;8723;51.502;6.918;2023-07-13T01:57:43;17.60;1.00
17215;DHT22;8723;51.502;6.918;2023-07-13T02:00:14;17.70;1.00
17215;DHT22;8723;51.502;6.918;2023-07-13T02:02:44;17.60;1.00
17215;DHT22;8723;51.502;6.918;2023-07-13T02:05:15;17.50;1.00
17215;DHT22;8723;51.502;6.918;2023-07-13T02:07:46;17.50;1.00
17215;DHT22;8723;51.502;6.918;2023-07-13T02:10:15;17.60;1.00
17215;DHT22;8723;51.502;6.918;2023-07-13T02:12:44;17.50;1.00
17215;DHT22;8723;51.502;6.918;2023-07-13T02:15:13;17.50;1.00
17215;DHT22;8723;51.502;6.918;2023-07-13T02:17:43;17.50;1.00
17215;DHT22;8723;51.502;6.918;2023-07-13T02:20:14;17.50;1.00
17215;DHT22;8723;51.502;6.918;2023-07-13T02:22:43;17.40;1.00
17215;DHT22;8723;51.502;6.918;2023-07-13T02:25:13;17.30;1.00
17215;DHT22;8723;51.502;6.918;2023-07-13T02:27:46;17.40;1.00
17215;DHT22;8723;51.502;6.918;2023-07-13T02:30:16;17.40;1.00
17215;DHT22;8723;51.502;6.918;2023-07-13T02:32:45;17.30;1.00
17215;DHT22;8723;51.502;6.918;2023-07-13T02:35:13;17.40;1.00
17215;DHT22;8723;51.502;6.918;2023-07-13T02:37:40;17.40;1.00
17215;DHT22;8723;51.502;6.918;2023-07-13T02:40:08;17.40;1.00
17215;DHT22;8723;51.502;6.918;2023-07-13T02:42:35;17.40;1.00
17215;DHT22;8723;51.502;6.918;2023-07-13T02:45:04;17.40;1.00
17215;DHT22;8723;51.502;6.918;2023-07-13T02:47:32;17.40;1.00
17215;DHT22;8723;51.502;6.918;2023-07-13T02:49:59;17.30;1.00
17215;DHT22;8723;51.502;6.918;2023-07-13T02:52:27;17.30;1.00
17215;DHT22;8723;51.502;6.918;2023-07-13T02:54:54;17.30;1.00
17215;DHT22;8723;51.502;6.918;2023-07-13T02:57:20;17.30;1.00
17215;DHT22;8723;51.502;6.918;2023-07-13T02:59:48;17.20;1.00
17215;DHT22;8723;51.502;6.918;2023-07-13T03:02:17;17.20;1.00
17215;DHT22;8723;51.502;6.918;2023-07-13T03:04:46;17.20;1.00
17215;DHT22;8723;51.502;6.918;2023-07-13T03:07:15;17.10;1.00
17215;DHT22;8723;51.502;6.918;2023-07-13T03:09:44;17.00;1.00
17215;DHT22;8723;51.502;6.918;2023-07-13T03:12:14;17.00;1.00
17215;DHT22;8723;51.502;6.918;2023-07-13T03:14:42;17.10;1.00
17215;DHT22;8723;51.502;6.918;2023-07-13T03:17:09;17.00;1.00
17215;DHT22;8723;51.502;6.918;2023-07-13T03:19:37;17.00;1.00
17215;DHT22;8723;51.502;6.918;2023-07-13T03:22:05;17.00;1.00
17215;DHT22;8723;51.502;6.918;2023-07-13T03:24:32;17.00;1.00
17215;DHT22;8723;51.502;6.918;2023-07-13T03:27:01;17.00;1.00
17215;DHT22;8723;51.502;6.918;2023-07-13T03:29:28;16.90;1.00
17215;DHT22;8723;51.502;6.918;2023-07-13T03:31:55;16.90;1.00
17215;DHT22;8723;51.502;6.918;2023-07-13T03:34:22;16.90;1.00
17215;DHT22;8723;51.502;6.918;2023-07-13T03:36:50;16.90;1.00
17215;DHT22;8723;51.502;6.918;2023-07-13T03:39:17;16.80;1.00
17215;DHT22;8723;51.502;6.918;2023-07-13T03:41:44;16.80;1.00
17215;DHT22;8723;51.502;6.918;2023-07-13T03:44:11;16.90;1.00
17215;DHT22;8723;51.502;6.918;2023-07-13T03:46:38;16.80;1.00
17215;DHT22;8723;51.502;6.918;2023-07-13T03:49:05;16.80;1.00
17215;DHT22;8723;51.502;6.918;2023-07-13T03:51:32;16.90;1.00
17215;DHT22;8723;51.502;6.918;2023-07-13T03:54:01;17.00;1.00
17215;DHT22;8723;51.502;6.918;2023-07-13T03:56:29;16.90;1.00
17215;DHT22;8723;51.502;6.918;2023-07-13T03:58:58;17.00;1.00
17215;DHT22;8723;51.502;6.918;2023-07-13T04:01:25;17.10;1.00
17215;DHT22;8723;51.502;6.918;2023-07-13T04:03:52;17.10;1.00
17215;DHT22;8723;51.502;6.918;2023-07-13T04:06:20;17.20;1.00
17215;DHT22;8723;51.502;6.918;2023-07-13T04:08:51;17.20;1.00
17215;DHT22;8723;51.502;6.918;2023-07-13T04:11:20;17.20;1.00
17215;DHT22;8723;51.502;6.918;2023-07-13T04:13:48;17.20;1.00
17215;DHT22;8723;51.502;6.918;2023-07-13T04:16:16;17.30;1.00
17215;DHT22;8723;51.502;6.918;2023-07-13T04:18:43;17.30;1.00
17215;DHT22;8723;51.502;6.918;2023-07-13T04:21:11;17.20;1.00
17215;DHT22;8723;51.502;6.918;2023-07-13T04:23:38;17.30;1.00
17215;DHT22;8723;51.502;6.918;2023-07-13T04:26:05;17.30;1.00
17215;DHT22;8723;51.502;6.918;2023-07-13T04:28:34;17.40;1.00
17215;DHT22;8723;51.502;6.918;2023-07-13T04:31:01;17.50;1.00
17215;DHT22;8723;51.502;6.918;2023-07-13T04:33:28;17.40;1.00
17215;DHT22;8723;51.502;6.918;2023-07-13T04:35:55;17.50;1.00
17215;DHT22;8723;51.502;6.918;2023-07-13T04:38:24;17.50;1.00
17215;DHT22;8723;51.502;6.918;2023-07-13T04:40:54;17.50;1.00
17215;DHT22;8723;51.502;6.918;2023-07-13T04:43:21;17.60;1.00
17215;DHT22;8723;51.502;6.918;2023-07-13T04:45:50;17.60;1.00
17215;DHT22;8723;51.502;6.918;2023-07-13T04:48:17;17.60;1.00
17215;DHT22;8723;51.502;6.918;2023-07-13T04:50:44;17.60;1.00
17215;DHT22;8723;51.502;6.918;2023-07-13T04:53:11;17.60;1.00
17215;DHT22;8723;51.502;6.918;2023-07-13T04:55:38;17.60;1.00
17215;DHT22;8723;51.502;6.918;2023-07-13T04:58:06;17.60;1.00
17215;DHT22;8723;51.502;6.918;2023-07-13T05:00:33;17.60;1.00
17215;DHT22;8723;51.502;6.918;2023-07-13T05:03:02;17.70;1.00
17215;DHT22;8723;51.502;6.918;2023-07-13T05:05:29;17.70;1.00
17215;DHT22;8723;51.502;6.918;2023-07-13T05:07:56;17.70;1.00
17215;DHT22;8723;51.502;6.918;2023-07-13T05:10:24;17.70;1.00
17215;DHT22;8723;51.502;6.918;2023-07-13T05:12:51;17.80;1.00
17215;DHT22;8723;51.502;6.918;2023-07-13T05:15:20;17.80;1.00
17215;DHT22;8723;51.502;6.918;2023-07-13T05:17:47;17.90;1.00
17215;DHT22;8723;51.502;6.918;2023-07-13T05:20:17;17.80;1.00
17215;DHT22;8723;51.502;6.918;2023-07-13T05:22:44;17.90;1.00
17215;DHT22;8723;51.502;6.918;2023-07-13T05:25:12;17.90;1.00
17215;DHT22;8723;51.502;6.918;2023-07-13T05:27:39;17.90;1.00
17215;DHT22;8723;51.502;6.918;2023-07-13T05:30:07;18.00;1.00
17215;DHT22;8723;51.502;6.918;2023-07-13T05:32:36;18.00;1.00
17215;DHT22;8723;51.502;6.918;2023-07-13T05:35:03;18.00;1.00
17215;DHT22;8723;51.502;6.918;2023-07-13T05:37:31;18.10;1.00
17215;DHT22;8723;51.502;6.918;2023-07-13T05:39:58;18.10;1.00
17215;DHT22;8723;51.502;6.918;2023-07-13T05:42:25;18.10;1.00
17215;DHT22;8723;51.502;6.918;2023-07-13T05:44:52;18.10;1.00
17215;DHT22;8723;51.502;6.918;2023-07-13T05:47:19;18.10;1.00
17215;DHT22;8723;51.502;6.918;2023-07-13T05:49:46;18.10;1.00
17215;DHT22;8723;51.502;6.918;2023-07-13T05:52:13;18.20;1.00
17215;DHT22;8723;51.502;6.918;2023-07-13T05:54:41;18.20;1.00
17215;DHT22;8723;51.502;6.918;2023-07-13T05:57:08;18.10;1.00
17215;DHT22;8723;51.502;6.918;2023-07-13T05:59:35;18.30;1.00
17215;DHT22;8723;51.502;6.918;2023-07-13T06:02:03;18.30;1.00
17215;DHT22;8723;51.502;6.918;2023-07-13T06:04:29;18.30;1.00
17215;DHT22;8723;51.502;6.918;2023-07-13T06:06:57;18.30;1.00
17215;DHT22;8723;51.502;6.918;2023-07-13T06:09:23;18.30;1.00
17215;DHT22;8723;51.502;6.918;2023-07-13T06:11:52;18.40;1.00
17215;DHT22;8723;51.502;6.918;2023-07-13T06:14:19;18.50;1.00
17215;DHT22;8723;51.502;6.918;2023-07-13T06:16:46;18.50;1.00
17215;DHT22;8723;51.502;6.918;2023-07-13T06:19:12;18.50;1.00
17215;DHT22;8723;51.502;6.918;2023-07-13T06:21:39;18.60;1.00
17215;DHT22;8723;51.502;6.918;2023-07-13T06:24:06;18.60;1.00
17215;DHT22;8723;51.502;6.918;2023-07-13T06:26:33;18.70;1.00
17215;DHT22;8723;51.502;6.918;2023-07-13T06:29:01;18.70;1.00
17215;DHT22;8723;51.502;6.918;2023-07-13T06:31:28;18.70;1.00
17215;DHT22;8723;51.502;6.918;2023-07-13T06:33:55;18.70;1.00
17215;DHT22;8723;51.502;6.918;2023-07-13T06:36:22;18.70;1.00
17215;DHT22;8723;51.502;6.918;2023-07-13T06:38:49;18.80;1.00
17215;DHT22;8723;51.502;6.918;2023-07-13T06:41:16;18.80;1.00
17215;DHT22;8723;51.502;6.918;2023-07-13T06:43:43;18.90;1.00
17215;DHT22;8723;51.502;6.918;2023-07-13T06:46:11;19.00;1.00
17215;DHT22;8723;51.502;6.918;2023-07-13T06:48:38;19.10;1.00
17215;DHT22;8723;51.502;6.918;2023-07-13T06:51:05;19.10;1.00
17215;DHT22;8723;51.502;6.918;2023-07-13T06:53:32;19.10;1.00
17215;DHT22;8723;51.502;6.918;2023-07-13T06:55:58;19.20;1.00
17215;DHT22;8723;51.502;6.918;2023-07-13T06:58:25;19.20;1.00
17215;DHT22;8723;51.502;6.918;2023-07-13T07:00:52;19.20;1.00
17215;DHT22;8723;51.502;6.918;2023-07-13T07:03:21;19.20;1.00
17215;DHT22;8723;51.502;6.918;2023-07-13T07:05:49;19.20;1.00
17215;DHT22;8723;51.502;6.918;2023-07-13T07:08:15;19.20;1.00
17215;DHT22;8723;51.502;6.918;2023-07-13T07:10:42;19.30;1.00
17215;DHT22;8723;51.502;6.918;2023-07-13T07:13:11;19.30;1.00
17215;DHT22;8723;51.502;6.918;2023-07-13T07:15:38;19.30;1.00
17215;DHT22;8723;51.502;6.918;2023-07-13T07:18:04;19.40;1.00
17215;DHT22;8723;51.502;6.918;2023-07-13T07:20:33;19.50;1.00
17215;DHT22;8723;51.502;6.918;2023-07-13T07:23:00;19.60;1.00
17215;DHT22;8723;51.502;6.918;2023-07-13T07:25:26;19.60;1.00
17215;DHT22;8723;51.502;6.918;2023-07-13T07:27:57;19.70;1.00
17215;DHT22;8723;51.502;6.918;2023-07-13T07:30:24;19.70;1.00
17215;DHT22;8723;51.502;6.918;2023-07-13T07:32:51;19.90;1.00
17215;DHT22;8723;51.502;6.918;2023-07-13T07:35:17;19.90;1.00
17215;DHT22;8723;51.502;6.918;2023-07-13T07:37:46;19.80;1.00
17215;DHT22;8723;51.502;6.918;2023-07-13T07:40:13;19.90;1.00
17215;DHT22;8723;51.502;6.918;2023-07-13T07:42:40;19.90;1.00
17215;DHT22;8723;51.502;6.918;2023-07-13T07:45:07;19.80;1.00
17215;DHT22;8723;51.502;6.918;2023-07-13T07:47:36;19.90;1.00
17215;DHT22;8723;51.502;6.918;2023-07-13T07:50:04;19.90;1.00
17215;DHT22;8723;51.502;6.918;2023-07-13T07:52:31;20.00;1.00
17215;DHT22;8723;51.502;6.918;2023-07-13T07:54:59;19.90;1.00
17215;DHT22;8723;51.502;6.918;2023-07-13T07:57:26;20.00;1.00
17215;DHT22;8723;51.502;6.918;2023-07-13T07:59:53;20.20;1.00
17215;DHT22;8723;51.502;6.918;2023-07-13T08:02:20;20.20;1.00
17215;DHT22;8723;51.502;6.918;2023-07-13T08:04:47;20.30;1.00
17215;DHT22;8723;51.502;6.918;2023-07-13T08:07:13;20.30;1.00
17215;DHT22;8723;51.502;6.918;2023-07-13T08:09:40;20.40;1.00
17215;DHT22;8723;51.502;6.918;2023-07-13T08:12:09;20.40;1.00
17215;DHT22;8723;51.502;6.918;2023-07-13T08:14:36;20.40;1.00
17215;DHT22;8723;51.502;6.918;2023-07-13T08:17:04;20.50;1.00
17215;DHT22;8723;51.502;6.918;2023-07-13T08:19:31;20.80;1.00
17215;DHT22;8723;51.502;6.918;2023-07-13T08:21:58;21.10;1.00
17215;DHT22;8723;51.502;6.918;2023-07-13T08:24:24;21.30;1.00
17215;DHT22;8723;51.502;6.918;2023-07-13T08:26:51;21.30;1.00
17215;DHT22;8723;51.502;6.918;2023-07-13T08:29:20;21.20;1.00
17215;DHT22;8723;51.502;6.918;2023-07-13T08:31:47;21.20;1.00
17215;DHT22;8723;51.502;6.918;2023-07-13T08:34:14;21.20;1.00
17215;DHT22;8723;51.502;6.918;2023-07-13T08:36:41;21.30;1.00
17215;DHT22;8723;51.502;6.918;2023-07-13T08:39:08;21.50;1.00
17215;DHT22;8723;51.502;6.918;2023-07-13T08:41:35;21.50;1.00
17215;DHT22;8723;51.502;6.918;2023-07-13T08:44:05;21.70;1.00
17215;DHT22;8723;51.502;6.918;2023-07-13T08:46:38;21.90;1.00
17215;DHT22;8723;51.502;6.918;2023-07-13T08:49:09;21.90;1.00
17215;DHT22;8723;51.502;6.918;2023-07-13T08:51:41;22.00;1.00
17215;DHT22;8723;51.502;6.918;2023-07-13T08:54:18;22.00;1.00
17215;DHT22;8723;51.502;6.918;2023-07-13T08:56:46;22.10;1.00
17215;DHT22;8723;51.502;6.918;2023-07-13T08:59:16;22.00;1.00
17215;DHT22;8723;51.502;6.918;2023-07-13T09:02:01;22.10;1.00
17215;DHT22;8723;51.502;6.918;2023-07-13T09:04:35;22.10;1.00
17215;DHT22;8723;51.502;6.918;2023-07-13T09:07:12;22.00;1.00
17215;DHT22;8723;51.502;6.918;2023-07-13T09:09:50;22.00;1.00
17215;DHT22;8723;51.502;6.918;2023-07-13T09:12:24;22.00;1.00
17215;DHT22;8723;51.502;6.918;2023-07-13T09:14:55;22.00;1.00
17215;DHT22;8723;51.502;6.918;2023-07-13T09:17:27;22.00;1.00
17215;DHT22;8723;51.502;6.918;2023-07-13T09:19:58;22.20;1.00
17215;DHT22;8723;51.502;6.918;2023-07-13T09:22:26;22.40;1.00
17215;DHT22;8723;51.502;6.918;2023-07-13T09:25:00;22.50;1.00
17215;DHT22;8723;51.502;6.918;2023-07-13T09:27:31;22.60;1.00
17215;DHT22;8723;51.502;6.918;2023-07-13T09:30:15;22.80;1.00
17215;DHT22;8723;51.502;6.918;2023-07-13T09:32:49;22.80;1.00
17215;DHT22;8723;51.502;6.918;2023-07-13T09:35:20;22.80;1.00
17215;DHT22;8723;51.502;6.918;2023-07-13T09:37:48;22.90;1.00
17215;DHT22;8723;51.502;6.918;2023-07-13T09:40:32;22.90;1.00
17215;DHT22;8723;51.502;6.918;2023-07-13T09:43:03;22.80;1.00
17215;DHT22;8723;51.502;6.918;2023-07-13T09:45:33;22.90;1.00
17215;DHT22;8723;51.502;6.918;2023-07-13T09:48:06;23.00;1.00
17215;DHT22;8723;51.502;6.918;2023-07-13T09:50:34;23.10;1.00
17215;DHT22;8723;51.502;6.918;2023-07-13T09:53:01;23.30;1.00
17215;DHT22;8723;51.502;6.918;2023-07-13T09:55:31;23.40;1.00
17215;DHT22;8723;51.502;6.918;2023-07-13T09:58:03;23.60;1.00
17215;DHT22;8723;51.502;6.918;2023-07-13T10:00:31;23.70;1.00
17215;DHT22;8723;51.502;6.918;2023-07-13T10:03:00;23.80;1.00
17215;DHT22;8723;51.502;6.918;2023-07-13T10:05:28;23.80;1.00
17215;DHT22;8723;51.502;6.918;2023-07-13T10:08:03;23.50;1.00
17215;DHT22;8723;51.502;6.918;2023-07-13T10:10:33;23.40;1.00
17215;DHT22;8723;51.502;6.918;2023-07-13T10:13:01;23.10;1.00
17215;DHT22;8723;51.502;6.918;2023-07-13T10:15:30;23.00;1.00
17215;DHT22;8723;51.502;6.918;2023-07-13T10:17:57;23.10;1.00
17215;DHT22;8723;51.502;6.918;2023-07-13T10:20:24;23.30;1.00
17215;DHT22;8723;51.502;6.918;2023-07-13T10:22:57;23.40;1.00
17215;DHT22;8723;51.502;6.918;2023-07-13T10:25:29;23.30;1.00
17215;DHT22;8723;51.502;6.918;2023-07-13T10:28:02;23.20;1.00
17215;DHT22;8723;51.502;6.918;2023-07-13T10:30:33;23.00;1.00
17215;DHT22;8723;51.502;6.918;2023-07-13T10:33:03;23.10;1.00
17215;DHT22;8723;51.502;6.918;2023-07-13T10:35:35;23.00;1.00
17215;DHT22;8723;51.502;6.918;2023-07-13T10:38:06;23.00;1.00
17215;DHT22;8723;51.502;6.918;2023-07-13T10:40:39;23.30;1.00
17215;DHT22;8723;51.502;6.918;2023-07-13T10:43:12;23.60;1.00
17215;DHT22;8723;51.502;6.918;2023-07-13T10:45:41;23.50;1.00
17215;DHT22;8723;51.502;6.918;2023-07-13T10:48:12;23.60;1.00
17215;DHT22;8723;51.502;6.918;2023-07-13T10:50:42;23.60;1.00
17215;DHT22;8723;51.502;6.918;2023-07-13T10:53:20;23.60;1.00
17215;DHT22;8723;51.502;6.918;2023-07-13T10:55:58;23.70;1.00
17215;DHT22;8723;51.502;6.918;2023-07-13T10:58:31;23.80;1.00
17215;DHT22;8723;51.502;6.918;2023-07-13T11:01:03;24.00;1.00
17215;DHT22;8723;51.502;6.918;2023-07-13T11:03:34;24.10;1.00
17215;DHT22;8723;51.502;6.918;2023-07-13T11:06:08;24.20;1.00
17215;DHT22;8723;51.502;6.918;2023-07-13T11:08:50;24.20;1.00
17215;DHT22;8723;51.502;6.918;2023-07-13T11:11:34;24.30;1.00
17215;DHT22;8723;51.502;6.918;2023-07-13T11:14:03;24.40;1.00
17215;DHT22;8723;51.502;6.918;2023-07-13T11:16:43;24.40;1.00
17215;DHT22;8723;51.502;6.918;2023-07-13T11:19:38;24.70;1.00
17215;DHT22;8723;51.502;6.918;2023-07-13T11:22:15;24.90;1.00
17215;DHT22;8723;51.502;6.918;2023-07-13T11:24:59;24.80;1.00
17215;DHT22;8723;51.502;6.918;2023-07-13T11:27:42;24.80;1.00
17215;DHT22;8723;51.502;6.918;2023-07-13T11:30:34;24.90;1.00
17215;DHT22;8723;51.502;6.918;2023-07-13T11:33:13;25.10;1.00
17215;DHT22;8723;51.502;6.918;2023-07-13T11:35:53;25.20;1.00
17215;DHT22;8723;51.502;6.918;2023-07-13T11:38:30;25.20;1.00
17215;DHT22;8723;51.502;6.918;2023-07-13T11:41:02;25.20;1.00
17215;DHT22;8723;51.502;6.918;2023-07-13T11:43:30;25.40;1.00
17215;DHT22;8723;51.502;6.918;2023-07-13T11:46:11;25.50;1.00
17215;DHT22;8723;51.502;6.918;2023-07-13T11:48:38;25.40;1.00
17215;DHT22;8723;51.502;6.918;2023-07-13T11:51:06;25.50;1.00
17215;DHT22;8723;51.502;6.918;2023-07-13T11:53:40;25.60;1.00
17215;DHT22;8723;51.502;6.918;2023-07-13T11:56:08;25.70;1.00
17215;DHT22;8723;51.502;6.918;2023-07-13T11:58:35;25.50;1.00
17215;DHT22;8723;51.502;6.918;2023-07-13T12:01:03;25.60;1.00
17215;DHT22;8723;51.502;6.918;2023-07-13T12:03:33;25.70;1.00
17215;DHT22;8723;51.502;6.918;2023-07-13T12:06:02;25.80;1.00
17215;DHT22;8723;51.502;6.918;2023-07-13T12:08:32;25.80;1.00
17215;DHT22;8723;51.502;6.918;2023-07-13T12:11:05;26.00;1.00
17215;DHT22;8723;51.502;6.918;2023-07-13T12:13:37;26.20;1.00
17215;DHT22;8723;51.502;6.918;2023-07-13T12:16:14;26.20;1.00
17215;DHT22;8723;51.502;6.918;2023-07-13T12:18:43;26.30;1.00
17215;DHT22;8723;51.502;6.918;2023-07-13T12:21:16;26.40;1.00
17215;DHT22;8723;51.502;6.918;2023-07-13T12:23:45;26.30;1.00
17215;DHT22;8723;51.502;6.918;2023-07-13T12:26:14;26.20;1.00
17215;DHT22;8723;51.502;6.918;2023-07-13T12:28:47;26.10;1.00
17215;DHT22;8723;51.502;6.918;2023-07-13T12:31:24;26.00;1.00
17215;DHT22;8723;51.502;6.918;2023-07-13T12:33:57;26.10;1.00
17215;DHT22;8723;51.502;6.918;2023-07-13T12:36:26;26.30;1.00
17215;DHT22;8723;51.502;6.918;2023-07-13T12:38:54;26.40;1.00
17215;DHT22;8723;51.502;6.918;2023-07-13T12:41:22;26.40;1.00
17215;DHT22;8723;51.502;6.918;2023-07-13T12:43:52;26.20;1.00
17215;DHT22;8723;51.502;6.918;2023-07-13T12:46:20;26.00;1.00
17215;DHT22;8723;51.502;6.918;2023-07-13T12:48:49;25.80;1.00
17215;DHT22;8723;51.502;6.918;2023-07-13T12:51:21;25.50;1.00
17215;DHT22;8723;51.502;6.918;2023-07-13T12:53:50;25.30;1.00
17215;DHT22;8723;51.502;6.918;2023-07-13T12:56:21;24.90;1.00
17215;DHT22;8723;51.502;6.918;2023-07-13T12:58:54;24.70;1.00
17215;DHT22;8723;51.502;6.918;2023-07-13T13:01:22;24.60;1.00
17215;DHT22;8723;51.502;6.918;2023-07-13T13:03:53;24.40;1.00
17215;DHT22;8723;51.502;6.918;2023-07-13T13:06:23;24.30;1.00
17215;DHT22;8723;51.502;6.918;2023-07-13T13:08:51;24.10;1.00
17215;DHT22;8723;51.502;6.918;2023-07-13T13:11:20;23.80;1.00
17215;DHT22;8723;51.502;6.918;2023-07-13T13:13:49;23.50;1.00
17215;DHT22;8723;51.502;6.918;2023-07-13T13:16:20;23.00;1.00
17215;DHT22;8723;51.502;6.918;2023-07-13T13:18:48;22.50;1.00
17215;DHT22;8723;51.502;6.918;2023-07-13T13:21:15;22.30;1.00
17215;DHT22;8723;51.502;6.918;2023-07-13T13:23:42;22.10;1.00
17215;DHT22;8723;51.502;6.918;2023-07-13T13:26:11;22.10;1.00
17215;DHT22;8723;51.502;6.918;2023-07-13T13:28:38;21.90;1.00
17215;DHT22;8723;51.502;6.918;2023-07-13T13:31:07;21.80;1.00
17215;DHT22;8723;51.502;6.918;2023-07-13T13:33:39;21.90;1.00
17215;DHT22;8723;51.502;6.918;2023-07-13T13:36:18;22.00;1.00
17215;DHT22;8723;51.502;6.918;2023-07-13T13:38:46;22.10;1.00
17215;DHT22;8723;51.502;6.918;2023-07-13T13:41:14;22.10;1.00
17215;DHT22;8723;51.502;6.918;2023-07-13T13:43:42;22.30;1.00
17215;DHT22;8723;51.502;6.918;2023-07-13T13:46:15;22.50;1.00
17215;DHT22;8723;51.502;6.918;2023-07-13T13:48:44;22.80;1.00
17215;DHT22;8723;51.502;6.918;2023-07-13T13:51:17;23.60;1.00
17215;DHT22;8723;51.502;6.918;2023-07-13T13:53:45;23.80;1.00
17215;DHT22;8723;51.502;6.918;2023-07-13T13:56:12;24.00;1.00
17215;DHT22;8723;51.502;6.918;2023-07-13T13:58:39;23.90;1.00
17215;DHT22;8723;51.502;6.918;2023-07-13T14:01:12;23.70;1.00
17215;DHT22;8723;51.502;6.918;2023-07-13T14:03:40;23.40;1.00
17215;DHT22;8723;51.502;6.918;2023-07-13T14:06:11;23.30;1.00
17215;DHT22;8723;51.502;6.918;2023-07-13T14:08:39;23.10;1.00
17215;DHT22;8723;51.502;6.918;2023-07-13T14:11:07;23.10;1.00
17215;DHT22;8723;51.502;6.918;2023-07-13T14:13:38;23.10;1.00
17215;DHT22;8723;51.502;6.918;2023-07-13T14:16:10;23.10;1.00
17215;DHT22;8723;51.502;6.918;2023-07-13T14:18:38;23.00;1.00
17215;DHT22;8723;51.502;6.918;2023-07-13T14:21:14;23.00;1.00
17215;DHT22;8723;51.502;6.918;2023-07-13T14:23:43;23.20;1.00
17215;DHT22;8723;51.502;6.918;2023-07-13T14:26:13;23.10;1.00
17215;DHT22;8723;51.502;6.918;2023-07-13T14:28:43;23.10;1.00
17215;DHT22;8723;51.502;6.918;2023-07-13T14:31:12;23.10;1.00
17215;DHT22;8723;51.502;6.918;2023-07-13T14:33:40;23.10;1.00
17215;DHT22;8723;51.502;6.918;2023-07-13T14:36:20;23.30;1.00
17215;DHT22;8723;51.502;6.918;2023-07-13T14:38:48;23.20;1.00
17215;DHT22;8723;51.502;6.918;2023-07-13T14:41:15;23.10;1.00
17215;DHT22;8723;51.502;6.918;2023-07-13T14:43:42;23.10;1.00
17215;DHT22;8723;51.502;6.918;2023-07-13T14:46:21;23.30;1.00
17215;DHT22;8723;51.502;6.918;2023-07-13T14:48:51;23.50;1.00
17215;DHT22;8723;51.502;6.918;2023-07-13T14:51:19;23.50;1.00
17215;DHT22;8723;51.502;6.918;2023-07-13T14:53:46;23.60;1.00
17215;DHT22;8723;51.502;6.918;2023-07-13T14:56:13;23.80;1.00
17215;DHT22;8723;51.502;6.918;2023-07-13T14:58:42;23.90;1.00
17215;DHT22;8723;51.502;6.918;2023-07-13T15:01:12;23.90;1.00
17215;DHT22;8723;51.502;6.918;2023-07-13T15:03:43;24.00;1.00
17215;DHT22;8723;51.502;6.918;2023-07-13T15:06:11;24.00;1.00
17215;DHT22;8723;51.502;6.918;2023-07-13T15:08:41;23.80;1.00
17215;DHT22;8723;51.502;6.918;2023-07-13T15:11:09;23.50;1.00
17215;DHT22;8723;51.502;6.918;2023-07-13T15:13:37;23.40;1.00
17215;DHT22;8723;51.502;6.918;2023-07-13T15:16:09;23.40;1.00
17215;DHT22;8723;51.502;6.918;2023-07-13T15:18:38;23.40;1.00
17215;DHT22;8723;51.502;6.918;2023-07-13T15:21:08;23.30;1.00
17215;DHT22;8723;51.502;6.918;2023-07-13T15:23:36;23.20;1.00
17215;DHT22;8723;51.502;6.918;2023-07-13T15:26:04;23.40;1.00
17215;DHT22;8723;51.502;6.918;2023-07-13T15:28:32;23.40;1.00
17215;DHT22;8723;51.502;6.918;2023-07-13T15:31:00;23.40;1.00
17215;DHT22;8723;51.502;6.918;2023-07-13T15:33:28;23.00;1.00
17215;DHT22;8723;51.502;6.918;2023-07-13T15:35:57;22.40;1.00
17215;DHT22;8723;51.502;6.918;2023-07-13T15:38:28;21.80;1.00
17215;DHT22;8723;51.502;6.918;2023-07-13T15:40:56;21.40;1.00
17215;DHT22;8723;51.502;6.918;2023-07-13T15:43:40;21.20;99.90
17215;DHT22;8723;51.502;6.918;2023-07-13T15:46:06;21.10;1.00
17215;DHT22;8723;51.502;6.918;2023-07-13T15:48:33;20.90;92.40
17215;DHT22;8723;51.502;6.918;2023-07-13T15:51:02;21.00;99.90
17215;DHT22;8723;51.502;6.918;2023-07-13T15:53:32;21.10;99.90
17215;DHT22;8723;51.502;6.918;2023-07-13T15:55:59;20.90;99.90
17215;DHT22;8723;51.502;6.918;2023-07-13T15:58:27;20.50;53.10
17215;DHT22;8723;51.502;6.918;2023-07-13T16:00:55;20.50;1.00
17215;DHT22;8723;51.502;6.918;2023-07-13T16:03:22;20.60;99.90
17215;DHT22;8723;51.502;6.918;2023-07-13T16:05:51;20.50;99.90
17215;DHT22;8723;51.502;6.918;2023-07-13T16:08:25;20.60;1.00
17215;DHT22;8723;51.502;6.918;2023-07-13T16:10:54;20.60;99.90
17215;DHT22;8723;51.502;6.918;2023-07-13T16:13:21;20.40;99.90
17215;DHT22;8723;51.502;6.918;2023-07-13T16:15:52;20.50;99.90
17215;DHT22;8723;51.502;6.918;2023-07-13T16:18:21;20.50;91.20